Main page
METAR-TAF:

METAR-TAF

Airports :

Preveza, Greece

Aktion National Airport

latitude: 38-37N, longitude: 020-46E, elevation: 4 m

Current weather observation

The report was made 14 minutes ago, at 09:50 UTC
Wind 5 kt from the North/Northeast
Temperature 24°C
Humidity 47%
Pressure 1022 hPa
Visibility 10 km or more
Few clouds at a height of 3000 ft

METAR: LGPZ 190950Z 03005KT 9999 FEW030 24/12 Q1022

Time: 13:04 (10:04 UTC)

Forecast

The report was made 5 hours and 4 minutes ago, at 05:00 UTC
Forecast valid from 19 at 06 UTC to 20 at 06 UTC
Wind 3 kt from variable directions
Visibility: 8000 m
Few clouds at a height of 2500 ft
Becoming
from 19 at 10 UTC to 19 at 12 UTC
Wind 13 kt from the North/Northwest
Becoming
from 19 at 16 UTC to 19 at 18 UTC
Wind 3 kt from variable directions

TAF: LGPZ 190500Z 1906/2006 VRB03KT 8000 FEW025 BECMG 1910/1912 33013KT BECMG 1916/1918 VRB03KT

Weather observations and forecasts of more than 4000 airports (METAR and TAF reports).

The available stations are represented by yellow and red dots on the map.

Hover mouse over dot to see the name of the station.

Then click to see weather observations and forecasts.

To change the map : click on the green buttons with a black cross to zoom in, on the green button with a dash to zoom out, or on the green arrows for adjacent maps.


METAR-TAF: